sensor_id;sensor_type;location;lat;lon;timestamp;P1;durP1;ratioP1;P2;durP2;ratioP2
76423;SDS011;65257;52.104;4.268;2024-02-15T00:00:28;12.25;;;3.75;;
76423;SDS011;65257;52.104;4.268;2024-02-15T00:02:53;18.40;;;3.85;;
76423;SDS011;65257;52.104;4.268;2024-02-15T00:05:19;19.63;;;3.65;;
76423;SDS011;65257;52.104;4.268;2024-02-15T00:07:45;9.23;;;3.13;;
76423;SDS011;65257;52.104;4.268;2024-02-15T00:10:14;11.10;;;3.80;;
76423;SDS011;65257;52.104;4.268;2024-02-15T00:12:40;13.73;;;3.95;;
76423;SDS011;65257;52.104;4.268;2024-02-15T00:15:08;10.20;;;3.60;;
76423;SDS011;65257;52.104;4.268;2024-02-15T00:17:37;10.10;;;3.47;;
76423;SDS011;65257;52.104;4.268;2024-02-15T00:20:07;12.35;;;3.90;;
76423;SDS011;65257;52.104;4.268;2024-02-15T00:22:36;12.77;;;3.85;;
76423;SDS011;65257;52.104;4.268;2024-02-15T00:25:02;10.13;;;3.08;;
76423;SDS011;65257;52.104;4.268;2024-02-15T00:27:38;10.55;;;3.38;;
76423;SDS011;65257;52.104;4.268;2024-02-15T00:30:04;10.15;;;3.55;;
76423;SDS011;65257;52.104;4.268;2024-02-15T00:32:35;12.15;;;3.47;;
76423;SDS011;65257;52.104;4.268;2024-02-15T00:35:05;8.82;;;3.95;;
76423;SDS011;65257;52.104;4.268;2024-02-15T00:37:37;9.80;;;4.32;;
76423;SDS011;65257;52.104;4.268;2024-02-15T00:40:03;10.70;;;3.92;;
76423;SDS011;65257;52.104;4.268;2024-02-15T00:42:31;9.70;;;3.72;;
76423;SDS011;65257;52.104;4.268;2024-02-15T00:45:00;9.57;;;3.90;;
76423;SDS011;65257;52.104;4.268;2024-02-15T00:47:33;8.57;;;4.07;;
76423;SDS011;65257;52.104;4.268;2024-02-15T00:49:58;16.10;;;5.07;;
76423;SDS011;65257;52.104;4.268;2024-02-15T00:52:24;8.63;;;3.80;;
76423;SDS011;65257;52.104;4.268;2024-02-15T00:54:51;9.27;;;4.05;;
76423;SDS011;65257;52.104;4.268;2024-02-15T00:57:16;9.63;;;4.32;;
76423;SDS011;65257;52.104;4.268;2024-02-15T00:59:42;12.98;;;4.30;;
76423;SDS011;65257;52.104;4.268;2024-02-15T01:02:08;10.13;;;4.35;;
76423;SDS011;65257;52.104;4.268;2024-02-15T01:04:37;14.93;;;4.30;;
76423;SDS011;65257;52.104;4.268;2024-02-15T01:07:03;11.65;;;5.07;;
76423;SDS011;65257;52.104;4.268;2024-02-15T01:09:31;10.65;;;4.30;;
76423;SDS011;65257;52.104;4.268;2024-02-15T01:12:00;11.95;;;4.85;;
76423;SDS011;65257;52.104;4.268;2024-02-15T01:14:25;7.55;;;4.35;;
76423;SDS011;65257;52.104;4.268;2024-02-15T01:16:55;9.43;;;3.90;;
76423;SDS011;65257;52.104;4.268;2024-02-15T01:19:20;12.38;;;5.80;;
76423;SDS011;65257;52.104;4.268;2024-02-15T01:21:46;9.20;;;4.32;;
76423;SDS011;65257;52.104;4.268;2024-02-15T01:24:11;10.30;;;5.22;;
76423;SDS011;65257;52.104;4.268;2024-02-15T01:26:37;12.95;;;5.85;;
76423;SDS011;65257;52.104;4.268;2024-02-15T01:29:02;18.02;;;5.75;;
76423;SDS011;65257;52.104;4.268;2024-02-15T01:31:28;15.45;;;5.60;;
76423;SDS011;65257;52.104;4.268;2024-02-15T01:33:54;14.13;;;6.72;;
76423;SDS011;65257;52.104;4.268;2024-02-15T01:36:19;20.98;;;5.70;;
76423;SDS011;65257;52.104;4.268;2024-02-15T01:38:45;14.77;;;5.82;;
76423;SDS011;65257;52.104;4.268;2024-02-15T01:41:11;13.15;;;5.97;;
76423;SDS011;65257;52.104;4.268;2024-02-15T01:43:36;12.55;;;6.57;;
76423;SDS011;65257;52.104;4.268;2024-02-15T01:46:08;11.13;;;5.70;;
76423;SDS011;65257;52.104;4.268;2024-02-15T01:48:35;12.68;;;6.90;;
76423;SDS011;65257;52.104;4.268;2024-02-15T01:51:02;11.57;;;6.75;;
76423;SDS011;65257;52.104;4.268;2024-02-15T01:53:32;14.43;;;6.80;;
76423;SDS011;65257;52.104;4.268;2024-02-15T01:55:59;14.57;;;6.90;;
76423;SDS011;65257;52.104;4.268;2024-02-15T01:58:26;9.35;;;4.78;;
76423;SDS011;65257;52.104;4.268;2024-02-15T02:03:22;14.85;;;5.90;;
76423;SDS011;65257;52.104;4.268;2024-02-15T02:05:48;13.88;;;6.28;;
76423;SDS011;65257;52.104;4.268;2024-02-15T02:08:13;9.55;;;4.60;;
76423;SDS011;65257;52.104;4.268;2024-02-15T02:10:39;10.63;;;5.47;;
76423;SDS011;65257;52.104;4.268;2024-02-15T02:13:09;14.02;;;6.25;;
76423;SDS011;65257;52.104;4.268;2024-02-15T02:15:35;12.88;;;6.78;;
76423;SDS011;65257;52.104;4.268;2024-02-15T02:18:02;12.20;;;5.07;;
76423;SDS011;65257;52.104;4.268;2024-02-15T02:20:34;15.20;;;6.75;;
76423;SDS011;65257;52.104;4.268;2024-02-15T02:23:07;11.23;;;5.43;;
76423;SDS011;65257;52.104;4.268;2024-02-15T02:25:35;8.10;;;4.38;;
76423;SDS011;65257;52.104;4.268;2024-02-15T02:28:00;12.98;;;5.32;;
76423;SDS011;65257;52.104;4.268;2024-02-15T02:30:26;17.15;;;5.43;;
76423;SDS011;65257;52.104;4.268;2024-02-15T02:32:57;13.10;;;4.85;;
76423;SDS011;65257;52.104;4.268;2024-02-15T02:35:24;11.25;;;4.72;;
76423;SDS011;65257;52.104;4.268;2024-02-15T02:37:50;7.57;;;4.55;;
76423;SDS011;65257;52.104;4.268;2024-02-15T02:40:24;12.90;;;5.03;;
76423;SDS011;65257;52.104;4.268;2024-02-15T02:42:54;13.18;;;4.85;;
76423;SDS011;65257;52.104;4.268;2024-02-15T02:45:24;12.98;;;4.97;;
76423;SDS011;65257;52.104;4.268;2024-02-15T02:47:55;13.38;;;4.63;;
76423;SDS011;65257;52.104;4.268;2024-02-15T02:50:23;10.35;;;4.40;;
76423;SDS011;65257;52.104;4.268;2024-02-15T02:52:53;13.05;;;4.93;;
76423;SDS011;65257;52.104;4.268;2024-02-15T02:55:19;12.52;;;4.50;;
76423;SDS011;65257;52.104;4.268;2024-02-15T02:57:45;10.63;;;5.00;;
76423;SDS011;65257;52.104;4.268;2024-02-15T03:00:15;11.88;;;4.53;;
76423;SDS011;65257;52.104;4.268;2024-02-15T03:02:50;13.60;;;5.45;;
76423;SDS011;65257;52.104;4.268;2024-02-15T03:05:15;10.95;;;4.53;;
76423;SDS011;65257;52.104;4.268;2024-02-15T03:07:41;15.05;;;4.45;;
76423;SDS011;65257;52.104;4.268;2024-02-15T03:10:10;10.93;;;4.78;;
76423;SDS011;65257;52.104;4.268;2024-02-15T03:12:39;14.90;;;5.18;;
76423;SDS011;65257;52.104;4.268;2024-02-15T03:15:05;11.48;;;4.90;;
76423;SDS011;65257;52.104;4.268;2024-02-15T03:17:36;10.23;;;4.57;;
76423;SDS011;65257;52.104;4.268;2024-02-15T03:20:09;11.65;;;5.43;;
76423;SDS011;65257;52.104;4.268;2024-02-15T03:25:37;13.52;;;5.65;;
76423;SDS011;65257;52.104;4.268;2024-02-15T03:28:03;11.77;;;5.38;;
76423;SDS011;65257;52.104;4.268;2024-02-15T03:30:34;15.20;;;7.65;;
76423;SDS011;65257;52.104;4.268;2024-02-15T03:33:00;14.90;;;7.30;;
76423;SDS011;65257;52.104;4.268;2024-02-15T03:35:28;15.57;;;6.85;;
76423;SDS011;65257;52.104;4.268;2024-02-15T03:37:56;13.52;;;6.22;;
76423;SDS011;65257;52.104;4.268;2024-02-15T03:40:31;15.50;;;7.55;;
76423;SDS011;65257;52.104;4.268;2024-02-15T03:43:03;13.70;;;7.75;;
76423;SDS011;65257;52.104;4.268;2024-02-15T03:45:31;19.85;;;9.13;;
76423;SDS011;65257;52.104;4.268;2024-02-15T03:47:57;10.45;;;5.72;;
76423;SDS011;65257;52.104;4.268;2024-02-15T03:50:22;17.23;;;8.70;;
76423;SDS011;65257;52.104;4.268;2024-02-15T03:52:48;14.90;;;8.50;;
76423;SDS011;65257;52.104;4.268;2024-02-15T03:55:15;15.70;;;10.02;;
76423;SDS011;65257;52.104;4.268;2024-02-15T03:57:41;12.20;;;7.10;;
76423;SDS011;65257;52.104;4.268;2024-02-15T04:00:08;16.23;;;8.88;;
76423;SDS011;65257;52.104;4.268;2024-02-15T04:05:02;12.85;;;8.15;;
76423;SDS011;65257;52.104;4.268;2024-02-15T04:07:30;10.25;;;7.50;;
76423;SDS011;65257;52.104;4.268;2024-02-15T04:09:56;15.23;;;8.55;;
76423;SDS011;65257;52.104;4.268;2024-02-15T04:12:21;14.75;;;8.02;;
76423;SDS011;65257;52.104;4.268;2024-02-15T04:14:47;10.45;;;7.38;;
76423;SDS011;65257;52.104;4.268;2024-02-15T04:17:14;11.18;;;7.57;;
76423;SDS011;65257;52.104;4.268;2024-02-15T04:19:45;11.48;;;7.35;;
76423;SDS011;65257;52.104;4.268;2024-02-15T04:22:17;11.73;;;6.65;;
76423;SDS011;65257;52.104;4.268;2024-02-15T04:24:43;14.25;;;8.25;;
76423;SDS011;65257;52.104;4.268;2024-02-15T04:27:10;11.85;;;7.88;;
76423;SDS011;65257;52.104;4.268;2024-02-15T04:29:37;14.57;;;8.90;;
76423;SDS011;65257;52.104;4.268;2024-02-15T04:32:08;11.20;;;5.53;;
76423;SDS011;65257;52.104;4.268;2024-02-15T04:34:39;13.80;;;8.52;;
76423;SDS011;65257;52.104;4.268;2024-02-15T04:37:05;15.40;;;8.23;;
76423;SDS011;65257;52.104;4.268;2024-02-15T04:39:34;13.07;;;7.65;;
76423;SDS011;65257;52.104;4.268;2024-02-15T04:42:04;11.18;;;7.18;;
76423;SDS011;65257;52.104;4.268;2024-02-15T04:44:31;18.10;;;10.95;;
76423;SDS011;65257;52.104;4.268;2024-02-15T04:47:00;16.58;;;7.45;;
76423;SDS011;65257;52.104;4.268;2024-02-15T04:49:28;18.63;;;9.75;;
76423;SDS011;65257;52.104;4.268;2024-02-15T04:51:54;15.05;;;8.68;;
76423;SDS011;65257;52.104;4.268;2024-02-15T04:54:22;14.52;;;8.45;;
76423;SDS011;65257;52.104;4.268;2024-02-15T04:56:47;19.17;;;10.15;;
76423;SDS011;65257;52.104;4.268;2024-02-15T04:59:16;16.90;;;10.23;;
76423;SDS011;65257;52.104;4.268;2024-02-15T05:01:42;15.02;;;9.68;;
76423;SDS011;65257;52.104;4.268;2024-02-15T05:04:16;12.95;;;7.85;;
76423;SDS011;65257;52.104;4.268;2024-02-15T05:06:46;25.13;;;11.45;;
76423;SDS011;65257;52.104;4.268;2024-02-15T05:09:11;24.20;;;12.90;;
76423;SDS011;65257;52.104;4.268;2024-02-15T05:11:37;23.70;;;14.40;;
76423;SDS011;65257;52.104;4.268;2024-02-15T05:14:06;17.67;;;9.60;;
76423;SDS011;65257;52.104;4.268;2024-02-15T05:16:32;19.48;;;10.15;;
76423;SDS011;65257;52.104;4.268;2024-02-15T05:18:59;16.15;;;8.55;;
76423;SDS011;65257;52.104;4.268;2024-02-15T05:21:24;23.60;;;11.90;;
76423;SDS011;65257;52.104;4.268;2024-02-15T05:23:49;15.27;;;6.38;;
76423;SDS011;65257;52.104;4.268;2024-02-15T05:26:17;14.27;;;8.55;;
76423;SDS011;65257;52.104;4.268;2024-02-15T05:28:49;16.17;;;9.02;;
76423;SDS011;65257;52.104;4.268;2024-02-15T05:31:21;22.10;;;12.30;;
76423;SDS011;65257;52.104;4.268;2024-02-15T05:33:55;16.77;;;9.27;;
76423;SDS011;65257;52.104;4.268;2024-02-15T05:36:23;23.58;;;13.38;;
76423;SDS011;65257;52.104;4.268;2024-02-15T05:38:51;22.35;;;10.43;;
76423;SDS011;65257;52.104;4.268;2024-02-15T05:41:18;19.60;;;10.68;;
76423;SDS011;65257;52.104;4.268;2024-02-15T05:43:44;19.05;;;9.77;;
76423;SDS011;65257;52.104;4.268;2024-02-15T05:46:11;19.92;;;10.65;;
76423;SDS011;65257;52.104;4.268;2024-02-15T05:48:38;26.08;;;13.25;;
76423;SDS011;65257;52.104;4.268;2024-02-15T05:51:07;20.65;;;11.02;;
76423;SDS011;65257;52.104;4.268;2024-02-15T05:53:39;23.65;;;12.20;;
76423;SDS011;65257;52.104;4.268;2024-02-15T05:56:06;18.35;;;9.55;;
76423;SDS011;65257;52.104;4.268;2024-02-15T05:58:32;22.58;;;12.75;;
76423;SDS011;65257;52.104;4.268;2024-02-15T06:01:00;20.88;;;11.40;;
76423;SDS011;65257;52.104;4.268;2024-02-15T06:03:29;22.27;;;11.65;;
76423;SDS011;65257;52.104;4.268;2024-02-15T06:05:57;21.10;;;10.40;;
76423;SDS011;65257;52.104;4.268;2024-02-15T06:08:24;18.65;;;10.43;;
76423;SDS011;65257;52.104;4.268;2024-02-15T06:10:50;21.08;;;10.55;;
76423;SDS011;65257;52.104;4.268;2024-02-15T06:13:15;18.23;;;9.48;;
76423;SDS011;65257;52.104;4.268;2024-02-15T06:15:41;19.50;;;9.63;;
76423;SDS011;65257;52.104;4.268;2024-02-15T06:18:06;19.23;;;10.70;;
76423;SDS011;65257;52.104;4.268;2024-02-15T06:20:35;17.08;;;10.50;;
76423;SDS011;65257;52.104;4.268;2024-02-15T06:23:04;15.48;;;9.98;;
76423;SDS011;65257;52.104;4.268;2024-02-15T06:25:32;16.27;;;9.32;;
76423;SDS011;65257;52.104;4.268;2024-02-15T06:28:01;15.60;;;8.95;;
76423;SDS011;65257;52.104;4.268;2024-02-15T06:30:41;18.30;;;9.07;;
76423;SDS011;65257;52.104;4.268;2024-02-15T06:33:28;14.90;;;9.32;;
76423;SDS011;65257;52.104;4.268;2024-02-15T06:36:12;14.23;;;8.35;;
76423;SDS011;65257;52.104;4.268;2024-02-15T06:38:56;14.55;;;9.63;;
76423;SDS011;65257;52.104;4.268;2024-02-15T06:41:40;14.73;;;9.80;;
76423;SDS011;65257;52.104;4.268;2024-02-15T06:44:05;14.48;;;9.15;;
76423;SDS011;65257;52.104;4.268;2024-02-15T06:46:31;19.27;;;10.02;;
76423;SDS011;65257;52.104;4.268;2024-02-15T06:48:59;15.52;;;11.40;;
76423;SDS011;65257;52.104;4.268;2024-02-15T06:51:31;15.30;;;9.95;;
76423;SDS011;65257;52.104;4.268;2024-02-15T06:54:05;15.60;;;9.80;;
76423;SDS011;65257;52.104;4.268;2024-02-15T06:56:35;17.80;;;10.13;;
76423;SDS011;65257;52.104;4.268;2024-02-15T06:59:03;15.77;;;11.48;;
76423;SDS011;65257;52.104;4.268;2024-02-15T07:01:32;16.13;;;11.02;;
76423;SDS011;65257;52.104;4.268;2024-02-15T07:03:59;19.77;;;11.25;;
76423;SDS011;65257;52.104;4.268;2024-02-15T07:06:28;18.42;;;11.48;;
76423;SDS011;65257;52.104;4.268;2024-02-15T07:08:54;21.52;;;13.45;;
76423;SDS011;65257;52.104;4.268;2024-02-15T07:11:21;23.52;;;12.70;;
76423;SDS011;65257;52.104;4.268;2024-02-15T07:13:47;21.58;;;13.75;;
76423;SDS011;65257;52.104;4.268;2024-02-15T07:16:13;22.35;;;13.88;;
76423;SDS011;65257;52.104;4.268;2024-02-15T07:18:40;19.77;;;12.00;;
76423;SDS011;65257;52.104;4.268;2024-02-15T07:21:06;23.35;;;12.32;;
76423;SDS011;65257;52.104;4.268;2024-02-15T07:23:38;15.25;;;9.98;;
76423;SDS011;65257;52.104;4.268;2024-02-15T07:26:04;23.95;;;13.23;;
76423;SDS011;65257;52.104;4.268;2024-02-15T07:28:29;22.38;;;14.43;;
76423;SDS011;65257;52.104;4.268;2024-02-15T07:30:56;21.98;;;12.73;;
76423;SDS011;65257;52.104;4.268;2024-02-15T07:33:22;22.65;;;13.20;;
76423;SDS011;65257;52.104;4.268;2024-02-15T07:35:48;18.45;;;11.38;;
76423;SDS011;65257;52.104;4.268;2024-02-15T07:38:18;20.02;;;10.15;;
76423;SDS011;65257;52.104;4.268;2024-02-15T07:40:44;20.83;;;11.75;;
76423;SDS011;65257;52.104;4.268;2024-02-15T07:43:09;19.08;;;11.77;;
76423;SDS011;65257;52.104;4.268;2024-02-15T07:45:35;19.98;;;10.63;;
76423;SDS011;65257;52.104;4.268;2024-02-15T07:48:02;17.77;;;8.60;;
76423;SDS011;65257;52.104;4.268;2024-02-15T07:50:38;15.98;;;9.13;;
76423;SDS011;65257;52.104;4.268;2024-02-15T07:53:05;13.57;;;7.55;;
76423;SDS011;65257;52.104;4.268;2024-02-15T07:55:31;18.90;;;10.60;;
76423;SDS011;65257;52.104;4.268;2024-02-15T07:57:57;19.20;;;10.32;;
76423;SDS011;65257;52.104;4.268;2024-02-15T08:00:30;16.60;;;9.80;;
76423;SDS011;65257;52.104;4.268;2024-02-15T08:02:55;19.27;;;11.05;;
76423;SDS011;65257;52.104;4.268;2024-02-15T08:05:22;14.82;;;7.80;;
76423;SDS011;65257;52.104;4.268;2024-02-15T08:07:48;24.55;;;11.15;;
76423;SDS011;65257;52.104;4.268;2024-02-15T08:10:14;20.40;;;11.15;;
76423;SDS011;65257;52.104;4.268;2024-02-15T08:12:45;21.50;;;10.68;;
76423;SDS011;65257;52.104;4.268;2024-02-15T08:15:14;14.35;;;7.82;;
76423;SDS011;65257;52.104;4.268;2024-02-15T08:17:43;18.77;;;10.88;;
76423;SDS011;65257;52.104;4.268;2024-02-15T08:20:20;25.27;;;13.63;;
76423;SDS011;65257;52.104;4.268;2024-02-15T08:22:49;24.77;;;14.38;;
76423;SDS011;65257;52.104;4.268;2024-02-15T08:25:17;22.13;;;11.68;;
76423;SDS011;65257;52.104;4.268;2024-02-15T08:27:48;21.13;;;13.35;;
76423;SDS011;65257;52.104;4.268;2024-02-15T08:30:14;25.08;;;14.02;;
76423;SDS011;65257;52.104;4.268;2024-02-15T08:32:43;23.73;;;12.40;;
76423;SDS011;65257;52.104;4.268;2024-02-15T08:35:13;25.77;;;13.55;;
76423;SDS011;65257;52.104;4.268;2024-02-15T08:37:58;22.00;;;12.02;;
76423;SDS011;65257;52.104;4.268;2024-02-15T08:40:30;23.40;;;13.05;;
76423;SDS011;65257;52.104;4.268;2024-02-15T08:42:55;24.25;;;11.88;;
76423;SDS011;65257;52.104;4.268;2024-02-15T08:45:21;24.35;;;11.98;;
76423;SDS011;65257;52.104;4.268;2024-02-15T08:47:46;22.60;;;12.25;;
76423;SDS011;65257;52.104;4.268;2024-02-15T08:50:14;20.75;;;11.05;;
76423;SDS011;65257;52.104;4.268;2024-02-15T08:52:40;24.30;;;12.05;;
76423;SDS011;65257;52.104;4.268;2024-02-15T08:55:10;25.35;;;11.45;;
76423;SDS011;65257;52.104;4.268;2024-02-15T08:57:39;24.98;;;11.52;;
76423;SDS011;65257;52.104;4.268;2024-02-15T09:00:10;23.77;;;10.63;;
76423;SDS011;65257;52.104;4.268;2024-02-15T09:02:43;21.77;;;10.52;;
76423;SDS011;65257;52.104;4.268;2024-02-15T09:05:11;23.00;;;10.93;;
76423;SDS011;65257;52.104;4.268;2024-02-15T09:07:53;23.50;;;11.00;;
76423;SDS011;65257;52.104;4.268;2024-02-15T09:10:19;24.13;;;11.77;;
76423;SDS011;65257;52.104;4.268;2024-02-15T09:12:47;20.00;;;10.13;;
76423;SDS011;65257;52.104;4.268;2024-02-15T09:15:14;23.88;;;11.10;;
76423;SDS011;65257;52.104;4.268;2024-02-15T09:17:41;21.65;;;11.45;;
76423;SDS011;65257;52.104;4.268;2024-02-15T09:20:22;23.20;;;10.57;;
76423;SDS011;65257;52.104;4.268;2024-02-15T09:22:52;24.63;;;13.77;;
76423;SDS011;65257;52.104;4.268;2024-02-15T09:25:24;23.55;;;13.00;;
76423;SDS011;65257;52.104;4.268;2024-02-15T09:27:52;22.55;;;11.40;;
76423;SDS011;65257;52.104;4.268;2024-02-15T09:30:21;21.88;;;11.20;;
76423;SDS011;65257;52.104;4.268;2024-02-15T09:32:49;22.52;;;12.40;;
76423;SDS011;65257;52.104;4.268;2024-02-15T09:35:18;22.98;;;11.98;;
76423;SDS011;65257;52.104;4.268;2024-02-15T09:37:45;21.20;;;11.52;;
76423;SDS011;65257;52.104;4.268;2024-02-15T09:40:15;21.30;;;11.10;;
76423;SDS011;65257;52.104;4.268;2024-02-15T09:42:46;22.60;;;10.57;;
76423;SDS011;65257;52.104;4.268;2024-02-15T09:45:22;15.43;;;9.90;;
76423;SDS011;65257;52.104;4.268;2024-02-15T09:50:26;17.10;;;9.63;;
76423;SDS011;65257;52.104;4.268;2024-02-15T09:52:59;19.17;;;9.95;;
76423;SDS011;65257;52.104;4.268;2024-02-15T09:55:27;21.15;;;8.27;;
76423;SDS011;65257;52.104;4.268;2024-02-15T09:57:54;16.30;;;8.25;;
76423;SDS011;65257;52.104;4.268;2024-02-15T10:00:20;14.02;;;8.10;;
76423;SDS011;65257;52.104;4.268;2024-02-15T10:02:52;14.32;;;8.02;;
76423;SDS011;65257;52.104;4.268;2024-02-15T10:05:18;14.48;;;7.78;;
76423;SDS011;65257;52.104;4.268;2024-02-15T10:07:46;19.80;;;9.10;;
76423;SDS011;65257;52.104;4.268;2024-02-15T10:12:45;17.02;;;8.65;;
76423;SDS011;65257;52.104;4.268;2024-02-15T10:18:13;13.10;;;7.63;;
76423;SDS011;65257;52.104;4.268;2024-02-15T10:20:42;16.10;;;8.52;;
76423;SDS011;65257;52.104;4.268;2024-02-15T10:23:20;11.68;;;6.30;;
76423;SDS011;65257;52.104;4.268;2024-02-15T10:25:45;16.77;;;8.07;;
76423;SDS011;65257;52.104;4.268;2024-02-15T10:28:11;11.82;;;7.38;;
76423;SDS011;65257;52.104;4.268;2024-02-15T10:31:01;10.77;;;6.45;;
76423;SDS011;65257;52.104;4.268;2024-02-15T10:33:32;14.30;;;6.85;;
76423;SDS011;65257;52.104;4.268;2024-02-15T10:36:06;12.57;;;6.00;;
76423;SDS011;65257;52.104;4.268;2024-02-15T10:38:33;14.32;;;5.18;;
76423;SDS011;65257;52.104;4.268;2024-02-15T10:41:05;9.38;;;5.43;;
76423;SDS011;65257;52.104;4.268;2024-02-15T10:43:35;14.50;;;5.78;;
76423;SDS011;65257;52.104;4.268;2024-02-15T10:46:08;9.68;;;5.93;;
76423;SDS011;65257;52.104;4.268;2024-02-15T10:51:02;9.95;;;4.35;;
76423;SDS011;65257;52.104;4.268;2024-02-15T10:53:32;11.43;;;5.43;;
76423;SDS011;65257;52.104;4.268;2024-02-15T10:58:50;9.82;;;4.85;;
76423;SDS011;65257;52.104;4.268;2024-02-15T11:01:20;10.18;;;5.25;;
76423;SDS011;65257;52.104;4.268;2024-02-15T11:03:51;8.10;;;4.72;;
76423;SDS011;65257;52.104;4.268;2024-02-15T11:06:21;7.70;;;4.65;;
76423;SDS011;65257;52.104;4.268;2024-02-15T11:08:51;12.75;;;5.35;;
76423;SDS011;65257;52.104;4.268;2024-02-15T11:11:18;11.77;;;4.60;;
76423;SDS011;65257;52.104;4.268;2024-02-15T11:13:48;10.32;;;4.85;;
76423;SDS011;65257;52.104;4.268;2024-02-15T11:16:38;7.60;;;4.00;;
76423;SDS011;65257;52.104;4.268;2024-02-15T11:19:05;6.25;;;4.28;;
76423;SDS011;65257;52.104;4.268;2024-02-15T11:24:26;8.35;;;4.03;;
76423;SDS011;65257;52.104;4.268;2024-02-15T11:27:00;10.52;;;4.22;;
76423;SDS011;65257;52.104;4.268;2024-02-15T11:32:47;5.70;;;3.50;;
76423;SDS011;65257;52.104;4.268;2024-02-15T11:35:24;9.85;;;4.03;;
76423;SDS011;65257;52.104;4.268;2024-02-15T11:40:59;8.13;;;4.20;;
76423;SDS011;65257;52.104;4.268;2024-02-15T11:43:48;6.50;;;3.90;;
76423;SDS011;65257;52.104;4.268;2024-02-15T11:46:22;5.55;;;4.03;;
76423;SDS011;65257;52.104;4.268;2024-02-15T11:48:55;4.45;;;3.10;;
76423;SDS011;65257;52.104;4.268;2024-02-15T11:51:25;8.30;;;4.03;;
76423;SDS011;65257;52.104;4.268;2024-02-15T11:54:11;6.88;;;3.00;;
76423;SDS011;65257;52.104;4.268;2024-02-15T11:56:53;6.97;;;3.92;;
76423;SDS011;65257;52.104;4.268;2024-02-15T11:59:29;5.30;;;3.50;;
76423;SDS011;65257;52.104;4.268;2024-02-15T12:02:00;6.13;;;3.63;;
76423;SDS011;65257;52.104;4.268;2024-02-15T12:04:49;5.47;;;3.42;;
76423;SDS011;65257;52.104;4.268;2024-02-15T12:07:39;8.43;;;3.53;;
76423;SDS011;65257;52.104;4.268;2024-02-15T12:13:16;4.90;;;3.50;;
76423;SDS011;65257;52.104;4.268;2024-02-15T12:16:01;7.63;;;3.75;;
76423;SDS011;65257;52.104;4.268;2024-02-15T12:18:48;6.50;;;3.28;;
76423;SDS011;65257;52.104;4.268;2024-02-15T12:21:18;5.97;;;3.35;;
76423;SDS011;65257;52.104;4.268;2024-02-15T12:23:48;7.72;;;3.85;;
76423;SDS011;65257;52.104;4.268;2024-02-15T12:26:23;5.45;;;3.58;;
76423;SDS011;65257;52.104;4.268;2024-02-15T12:28:52;5.95;;;3.10;;
76423;SDS011;65257;52.104;4.268;2024-02-15T12:31:26;5.65;;;2.70;;
76423;SDS011;65257;52.104;4.268;2024-02-15T12:34:00;5.60;;;2.90;;
76423;SDS011;65257;52.104;4.268;2024-02-15T12:36:36;5.68;;;2.78;;
76423;SDS011;65257;52.104;4.268;2024-02-15T12:39:06;6.60;;;3.25;;
76423;SDS011;65257;52.104;4.268;2024-02-15T12:41:39;5.05;;;2.75;;
76423;SDS011;65257;52.104;4.268;2024-02-15T12:44:17;3.88;;;2.70;;
76423;SDS011;65257;52.104;4.268;2024-02-15T12:46:46;7.28;;;2.90;;
76423;SDS011;65257;52.104;4.268;2024-02-15T12:49:27;6.28;;;2.83;;
76423;SDS011;65257;52.104;4.268;2024-02-15T12:57:52;10.10;;;2.83;;
76423;SDS011;65257;52.104;4.268;2024-02-15T13:02:48;6.07;;;2.40;;
76423;SDS011;65257;52.104;4.268;2024-02-15T13:05:15;5.75;;;2.58;;
76423;SDS011;65257;52.104;4.268;2024-02-15T13:07:43;4.28;;;2.20;;
76423;SDS011;65257;52.104;4.268;2024-02-15T13:10:17;4.20;;;2.33;;
76423;SDS011;65257;52.104;4.268;2024-02-15T13:12:43;4.05;;;2.90;;
76423;SDS011;65257;52.104;4.268;2024-02-15T13:15:10;5.07;;;2.58;;
76423;SDS011;65257;52.104;4.268;2024-02-15T13:17:44;8.85;;;2.75;;
76423;SDS011;65257;52.104;4.268;2024-02-15T13:20:13;5.53;;;2.53;;
76423;SDS011;65257;52.104;4.268;2024-02-15T13:22:42;4.75;;;2.42;;
76423;SDS011;65257;52.104;4.268;2024-02-15T13:25:09;6.60;;;2.80;;
76423;SDS011;65257;52.104;4.268;2024-02-15T13:27:35;7.63;;;2.78;;
76423;SDS011;65257;52.104;4.268;2024-02-15T13:30:06;7.00;;;3.00;;
76423;SDS011;65257;52.104;4.268;2024-02-15T13:32:33;5.43;;;2.40;;
76423;SDS011;65257;52.104;4.268;2024-02-15T13:35:10;5.50;;;2.63;;
76423;SDS011;65257;52.104;4.268;2024-02-15T13:37:50;7.35;;;3.03;;
76423;SDS011;65257;52.104;4.268;2024-02-15T13:40:19;5.50;;;3.47;;
76423;SDS011;65257;52.104;4.268;2024-02-15T13:42:53;6.13;;;2.80;;
76423;SDS011;65257;52.104;4.268;2024-02-15T13:48:06;6.07;;;2.90;;
76423;SDS011;65257;52.104;4.268;2024-02-15T13:50:41;7.18;;;2.92;;
76423;SDS011;65257;52.104;4.268;2024-02-15T13:53:07;8.13;;;3.53;;
76423;SDS011;65257;52.104;4.268;2024-02-15T13:55:39;5.57;;;2.85;;
76423;SDS011;65257;52.104;4.268;2024-02-15T13:58:05;6.47;;;2.63;;
76423;SDS011;65257;52.104;4.268;2024-02-15T14:00:39;5.20;;;2.70;;
76423;SDS011;65257;52.104;4.268;2024-02-15T14:03:10;3.90;;;2.50;;
76423;SDS011;65257;52.104;4.268;2024-02-15T14:05:36;6.60;;;2.78;;
76423;SDS011;65257;52.104;4.268;2024-02-15T14:08:05;5.38;;;2.55;;
76423;SDS011;65257;52.104;4.268;2024-02-15T14:10:39;5.15;;;2.40;;
76423;SDS011;65257;52.104;4.268;2024-02-15T14:13:04;4.15;;;2.15;;
76423;SDS011;65257;52.104;4.268;2024-02-15T14:15:34;4.43;;;1.88;;
76423;SDS011;65257;52.104;4.268;2024-02-15T14:18:06;6.72;;;2.70;;
76423;SDS011;65257;52.104;4.268;2024-02-15T14:20:38;10.25;;;2.20;;
76423;SDS011;65257;52.104;4.268;2024-02-15T14:23:04;7.45;;;3.00;;
76423;SDS011;65257;52.104;4.268;2024-02-15T14:25:36;4.20;;;2.22;;
76423;SDS011;65257;52.104;4.268;2024-02-15T14:28:02;4.95;;;2.42;;
76423;SDS011;65257;52.104;4.268;2024-02-15T14:30:29;4.97;;;2.50;;
76423;SDS011;65257;52.104;4.268;2024-02-15T14:33:24;5.07;;;2.55;;
76423;SDS011;65257;52.104;4.268;2024-02-15T14:35:55;7.13;;;2.53;;
76423;SDS011;65257;52.104;4.268;2024-02-15T14:38:21;4.13;;;2.38;;
76423;SDS011;65257;52.104;4.268;2024-02-15T14:40:48;4.30;;;2.42;;
76423;SDS011;65257;52.104;4.268;2024-02-15T14:43:25;7.45;;;2.83;;
76423;SDS011;65257;52.104;4.268;2024-02-15T14:45:52;4.22;;;2.20;;
76423;SDS011;65257;52.104;4.268;2024-02-15T14:48:27;8.15;;;3.00;;
76423;SDS011;65257;52.104;4.268;2024-02-15T14:50:53;5.78;;;2.78;;
76423;SDS011;65257;52.104;4.268;2024-02-15T14:53:21;9.50;;;3.65;;
76423;SDS011;65257;52.104;4.268;2024-02-15T14:55:47;7.43;;;3.10;;
76423;SDS011;65257;52.104;4.268;2024-02-15T14:58:14;6.85;;;2.58;;
76423;SDS011;65257;52.104;4.268;2024-02-15T15:00:42;6.25;;;2.65;;
76423;SDS011;65257;52.104;4.268;2024-02-15T15:03:09;6.45;;;2.97;;
76423;SDS011;65257;52.104;4.268;2024-02-15T15:05:38;7.03;;;3.33;;
76423;SDS011;65257;52.104;4.268;2024-02-15T15:08:22;5.40;;;2.85;;
76423;SDS011;65257;52.104;4.268;2024-02-15T15:11:06;6.82;;;2.88;;
76423;SDS011;65257;52.104;4.268;2024-02-15T15:13:53;6.72;;;3.22;;
76423;SDS011;65257;52.104;4.268;2024-02-15T15:16:18;6.32;;;2.83;;
76423;SDS011;65257;52.104;4.268;2024-02-15T15:18:52;6.45;;;3.20;;
76423;SDS011;65257;52.104;4.268;2024-02-15T15:21:17;11.70;;;3.53;;
76423;SDS011;65257;52.104;4.268;2024-02-15T15:23:43;7.72;;;3.65;;
76423;SDS011;65257;52.104;4.268;2024-02-15T15:26:09;7.90;;;3.22;;
76423;SDS011;65257;52.104;4.268;2024-02-15T15:28:37;8.98;;;3.60;;
76423;SDS011;65257;52.104;4.268;2024-02-15T15:31:03;9.02;;;3.15;;
76423;SDS011;65257;52.104;4.268;2024-02-15T15:33:36;5.28;;;3.13;;